sensor_id;sensor_type;location;lat;lon;timestamp;pressure;altitude;pressure_sealevel;temperature;humidity
43071;BME280;36278;47.952;21.714;2023-07-29T00:01:30;99881.75;;;19.76;100.00
43071;BME280;36278;47.952;21.714;2023-07-29T00:03:55;99879.25;;;19.75;100.00
43071;BME280;36278;47.952;21.714;2023-07-29T00:06:21;99878.22;;;19.76;100.00
43071;BME280;36278;47.952;21.714;2023-07-29T00:08:46;99877.38;;;19.75;100.00
43071;BME280;36278;47.952;21.714;2023-07-29T00:11:11;99877.59;;;19.74;100.00
43071;BME280;36278;47.952;21.714;2023-07-29T00:13:36;99873.78;;;19.68;100.00
43071;BME280;36278;47.952;21.714;2023-07-29T00:16:02;99877.47;;;19.67;100.00
43071;BME280;36278;47.952;21.714;2023-07-29T00:18:27;99880.38;;;19.66;100.00
43071;BME280;36278;47.952;21.714;2023-07-29T00:20:53;99880.16;;;19.67;100.00
43071;BME280;36278;47.952;21.714;2023-07-29T00:23:18;99875.00;;;19.66;100.00
43071;BME280;36278;47.952;21.714;2023-07-29T00:25:46;99882.41;;;19.64;100.00
43071;BME280;36278;47.952;21.714;2023-07-29T00:28:12;99875.53;;;19.61;100.00
43071;BME280;36278;47.952;21.714;2023-07-29T00:30:37;99874.41;;;19.55;100.00
43071;BME280;36278;47.952;21.714;2023-07-29T00:33:03;99880.69;;;19.48;100.00
43071;BME280;36278;47.952;21.714;2023-07-29T00:35:28;99880.50;;;19.49;100.00
43071;BME280;36278;47.952;21.714;2023-07-29T00:37:53;99883.84;;;19.51;100.00
43071;BME280;36278;47.952;21.714;2023-07-29T00:40:19;99880.50;;;19.49;100.00
43071;BME280;36278;47.952;21.714;2023-07-29T00:42:45;99881.97;;;19.52;100.00
43071;BME280;36278;47.952;21.714;2023-07-29T00:45:10;99881.78;;;19.53;100.00
43071;BME280;36278;47.952;21.714;2023-07-29T00:47:35;99879.94;;;19.54;100.00
43071;BME280;36278;47.952;21.714;2023-07-29T00:50:01;99869.75;;;19.49;100.00
43071;BME280;36278;47.952;21.714;2023-07-29T00:52:26;99876.81;;;19.50;100.00
43071;BME280;36278;47.952;21.714;2023-07-29T00:54:52;99874.50;;;19.47;100.00
43071;BME280;36278;47.952;21.714;2023-07-29T00:57:17;99875.88;;;19.43;100.00
43071;BME280;36278;47.952;21.714;2023-07-29T00:59:42;99873.91;;;19.37;100.00
43071;BME280;36278;47.952;21.714;2023-07-29T01:02:08;99879.38;;;19.29;100.00
43071;BME280;36278;47.952;21.714;2023-07-29T01:04:33;99875.66;;;19.30;100.00
43071;BME280;36278;47.952;21.714;2023-07-29T01:07:03;99871.03;;;19.24;100.00
43071;BME280;36278;47.952;21.714;2023-07-29T01:17:07;99880.97;;;19.00;100.00
43071;BME280;36278;47.952;21.714;2023-07-29T01:21:58;99867.38;;;19.02;100.00
43071;BME280;36278;47.952;21.714;2023-07-29T01:24:24;99867.19;;;19.03;100.00
43071;BME280;36278;47.952;21.714;2023-07-29T01:26:49;99869.22;;;19.01;100.00
43071;BME280;36278;47.952;21.714;2023-07-29T01:29:15;99868.59;;;18.99;100.00
43071;BME280;36278;47.952;21.714;2023-07-29T01:31:43;99873.66;;;18.94;100.00
43071;BME280;36278;47.952;21.714;2023-07-29T01:34:12;99868.84;;;18.90;100.00
43071;BME280;36278;47.952;21.714;2023-07-29T01:36:38;99876.59;;;18.85;100.00
43071;BME280;36278;47.952;21.714;2023-07-29T01:39:05;99877.78;;;18.82;100.00
43071;BME280;36278;47.952;21.714;2023-07-29T01:41:32;99883.69;;;18.77;100.00
43071;BME280;36278;47.952;21.714;2023-07-29T01:43:58;99883.69;;;18.77;100.00
43071;BME280;36278;47.952;21.714;2023-07-29T01:46:23;99883.16;;;18.82;100.00
43071;BME280;36278;47.952;21.714;2023-07-29T01:48:49;99877.41;;;18.85;100.00
43071;BME280;36278;47.952;21.714;2023-07-29T01:51:14;99885.09;;;18.88;100.00
43071;BME280;36278;47.952;21.714;2023-07-29T01:53:39;99878.56;;;18.91;100.00
43071;BME280;36278;47.952;21.714;2023-07-29T01:56:04;99884.94;;;18.90;100.00
43071;BME280;36278;47.952;21.714;2023-07-29T01:58:30;99876.59;;;18.85;100.00
43071;BME280;36278;47.952;21.714;2023-07-29T02:00:57;99876.66;;;18.76;100.00
43071;BME280;36278;47.952;21.714;2023-07-29T02:03:22;99876.47;;;18.78;100.00
43071;BME280;36278;47.952;21.714;2023-07-29T02:05:48;99881.47;;;18.81;100.00
43071;BME280;36278;47.952;21.714;2023-07-29T02:08:13;99875.25;;;18.81;100.00
43071;BME280;36278;47.952;21.714;2023-07-29T02:10:39;99869.44;;;18.77;100.00
43071;BME280;36278;47.952;21.714;2023-07-29T02:13:04;99864.91;;;18.77;100.00
43071;BME280;36278;47.952;21.714;2023-07-29T02:15:29;99872.94;;;18.77;100.00
43071;BME280;36278;47.952;21.714;2023-07-29T02:17:55;99879.78;;;18.80;100.00
43071;BME280;36278;47.952;21.714;2023-07-29T02:20:20;99886.50;;;18.84;100.00
43071;BME280;36278;47.952;21.714;2023-07-29T02:22:45;99880.28;;;18.84;100.00
43071;BME280;36278;47.952;21.714;2023-07-29T02:25:11;99875.09;;;18.82;100.00
43071;BME280;36278;47.952;21.714;2023-07-29T02:27:36;99881.97;;;18.85;100.00
43071;BME280;36278;47.952;21.714;2023-07-29T02:30:02;99885.09;;;18.88;100.00
43071;BME280;36278;47.952;21.714;2023-07-29T02:32:27;99878.91;;;18.88;100.00
43071;BME280;36278;47.952;21.714;2023-07-29T02:34:53;99879.91;;;18.87;100.00
43071;BME280;36278;47.952;21.714;2023-07-29T02:37:18;99876.09;;;18.81;100.00
43071;BME280;36278;47.952;21.714;2023-07-29T02:39:43;99886.81;;;18.81;100.00
43071;BME280;36278;47.952;21.714;2023-07-29T02:42:09;99885.16;;;18.80;100.00
43071;BME280;36278;47.952;21.714;2023-07-29T02:44:34;99885.53;;;18.77;100.00
43071;BME280;36278;47.952;21.714;2023-07-29T02:46:59;99889.69;;;18.80;100.00
43071;BME280;36278;47.952;21.714;2023-07-29T02:49:24;99881.84;;;18.78;100.00
43071;BME280;36278;47.952;21.714;2023-07-29T02:51:50;99890.06;;;18.76;100.00
43071;BME280;36278;47.952;21.714;2023-07-29T02:54:15;99892.94;;;18.75;100.00
43071;BME280;36278;47.952;21.714;2023-07-29T02:56:40;99882.38;;;18.73;100.00
43071;BME280;36278;47.952;21.714;2023-07-29T02:59:06;99890.59;;;18.72;100.00
43071;BME280;36278;47.952;21.714;2023-07-29T03:01:31;99896.50;;;18.67;100.00
43071;BME280;36278;47.952;21.714;2023-07-29T03:03:56;99896.81;;;18.64;100.00
43071;BME280;36278;47.952;21.714;2023-07-29T03:06:21;99893.84;;;18.59;100.00
43071;BME280;36278;47.952;21.714;2023-07-29T03:08:47;99900.38;;;18.57;100.00
43071;BME280;36278;47.952;21.714;2023-07-29T03:11:13;99900.75;;;18.54;100.00
43071;BME280;36278;47.952;21.714;2023-07-29T03:13:39;99896.59;;;18.51;100.00
43071;BME280;36278;47.952;21.714;2023-07-29T03:16:07;99902.59;;;18.53;100.00
43071;BME280;36278;47.952;21.714;2023-07-29T03:18:33;99900.94;;;18.52;100.00
43071;BME280;36278;47.952;21.714;2023-07-29T03:20:58;99909.81;;;18.53;100.00
43071;BME280;36278;47.952;21.714;2023-07-29T03:23:24;99908.16;;;18.52;100.00
43071;BME280;36278;47.952;21.714;2023-07-29T03:25:49;99914.16;;;18.54;100.00
43071;BME280;36278;47.952;21.714;2023-07-29T03:28:16;99908.44;;;18.57;100.00
43071;BME280;36278;47.952;21.714;2023-07-29T03:30:42;99916.66;;;18.55;100.00
43071;BME280;36278;47.952;21.714;2023-07-29T03:33:07;99917.69;;;18.54;100.00
43071;BME280;36278;47.952;21.714;2023-07-29T03:35:32;99917.03;;;18.52;100.00
43071;BME280;36278;47.952;21.714;2023-07-29T03:37:58;99924.91;;;18.54;100.00
43071;BME280;36278;47.952;21.714;2023-07-29T03:40:23;99917.88;;;18.53;100.00
43071;BME280;36278;47.952;21.714;2023-07-29T03:42:48;99919.53;;;18.54;100.00
43071;BME280;36278;47.952;21.714;2023-07-29T03:45:14;99925.91;;;18.53;100.00
43071;BME280;36278;47.952;21.714;2023-07-29T03:47:39;99921.84;;;18.57;100.00
43071;BME280;36278;47.952;21.714;2023-07-29T03:50:05;99911.63;;;18.60;100.00
43071;BME280;36278;47.952;21.714;2023-07-29T03:52:30;99912.44;;;18.61;100.00
43071;BME280;36278;47.952;21.714;2023-07-29T03:54:56;99912.78;;;18.66;100.00
43071;BME280;36278;47.952;21.714;2023-07-29T03:57:21;99912.78;;;18.66;100.00
43071;BME280;36278;47.952;21.714;2023-07-29T03:59:46;99917.16;;;18.67;100.00
43071;BME280;36278;47.952;21.714;2023-07-29T04:02:11;99916.06;;;18.76;100.00
43071;BME280;36278;47.952;21.714;2023-07-29T04:04:37;99916.06;;;18.76;100.00
43071;BME280;36278;47.952;21.714;2023-07-29T04:07:02;99914.22;;;18.76;100.00
43071;BME280;36278;47.952;21.714;2023-07-29T04:09:27;99921.06;;;18.79;100.00
43071;BME280;36278;47.952;21.714;2023-07-29T04:11:53;99926.94;;;18.83;100.00
43071;BME280;36278;47.952;21.714;2023-07-29T04:14:18;99927.03;;;18.89;100.00
43071;BME280;36278;47.952;21.714;2023-07-29T04:16:43;99923.63;;;18.95;100.00
43071;BME280;36278;47.952;21.714;2023-07-29T04:19:10;99921.91;;;19.02;100.00
43071;BME280;36278;47.952;21.714;2023-07-29T04:21:35;99923.50;;;19.12;100.00
43071;BME280;36278;47.952;21.714;2023-07-29T04:24:00;99934.34;;;19.18;100.00
43071;BME280;36278;47.952;21.714;2023-07-29T04:26:26;99928.09;;;19.26;100.00
43071;BME280;36278;47.952;21.714;2023-07-29T04:28:51;99935.88;;;19.36;100.00
43071;BME280;36278;47.952;21.714;2023-07-29T04:31:16;99926.72;;;19.45;100.00
43071;BME280;36278;47.952;21.714;2023-07-29T04:33:42;99936.94;;;19.49;100.00
43071;BME280;36278;47.952;21.714;2023-07-29T04:36:07;99936.56;;;19.52;100.00
43071;BME280;36278;47.952;21.714;2023-07-29T04:38:32;99933.53;;;19.55;100.00
43071;BME280;36278;47.952;21.714;2023-07-29T04:40:58;99939.19;;;19.60;100.00
43071;BME280;36278;47.952;21.714;2023-07-29T04:43:26;99947.16;;;19.69;100.00
43071;BME280;36278;47.952;21.714;2023-07-29T04:45:52;99938.06;;;19.70;100.00
43071;BME280;36278;47.952;21.714;2023-07-29T04:48:17;99944.78;;;19.74;100.00
43071;BME280;36278;47.952;21.714;2023-07-29T04:50:42;99938.00;;;19.78;100.00
43071;BME280;36278;47.952;21.714;2023-07-29T04:53:08;99950.59;;;19.77;100.00
43071;BME280;36278;47.952;21.714;2023-07-29T04:55:33;99950.25;;;19.80;100.00
43071;BME280;36278;47.952;21.714;2023-07-29T04:57:58;99946.16;;;19.84;100.00
43071;BME280;36278;47.952;21.714;2023-07-29T05:00:25;99956.38;;;19.89;100.00
43071;BME280;36278;47.952;21.714;2023-07-29T05:02:50;99957.38;;;20.03;100.00
43071;BME280;36278;47.952;21.714;2023-07-29T05:05:16;99958.38;;;20.16;100.00
43071;BME280;36278;47.952;21.714;2023-07-29T05:07:41;99952.34;;;20.29;100.00
43071;BME280;36278;47.952;21.714;2023-07-29T05:10:07;99957.63;;;20.37;100.00
43071;BME280;36278;47.952;21.714;2023-07-29T05:12:32;99956.13;;;20.50;100.00
43071;BME280;36278;47.952;21.714;2023-07-29T05:14:58;99962.34;;;20.50;100.00
43071;BME280;36278;47.952;21.714;2023-07-29T05:17:23;99961.41;;;20.43;100.00
43071;BME280;36278;47.952;21.714;2023-07-29T05:19:48;99963.25;;;20.42;100.00
43071;BME280;36278;47.952;21.714;2023-07-29T05:22:14;99971.16;;;20.44;100.00
43071;BME280;36278;47.952;21.714;2023-07-29T05:24:39;99972.88;;;20.45;100.00
43071;BME280;36278;47.952;21.714;2023-07-29T05:27:04;99969.78;;;20.48;100.00
43071;BME280;36278;47.952;21.714;2023-07-29T05:29:30;99968.56;;;20.51;100.00
43071;BME280;36278;47.952;21.714;2023-07-29T05:31:55;99969.41;;;20.51;100.00
43071;BME280;36278;47.952;21.714;2023-07-29T05:34:22;99970.44;;;20.50;100.00
43071;BME280;36278;47.952;21.714;2023-07-29T05:36:47;99966.91;;;20.50;100.00
43071;BME280;36278;47.952;21.714;2023-07-29T05:39:13;99964.22;;;20.50;100.00
43071;BME280;36278;47.952;21.714;2023-07-29T05:41:38;99964.41;;;20.48;100.00
43071;BME280;36278;47.952;21.714;2023-07-29T05:44:03;99962.34;;;20.50;100.00
43071;BME280;36278;47.952;21.714;2023-07-29T05:46:29;99968.38;;;20.52;100.00
43071;BME280;36278;47.952;21.714;2023-07-29T05:48:54;99964.50;;;20.55;100.00
43071;BME280;36278;47.952;21.714;2023-07-29T05:51:19;99969.47;;;20.58;100.00
43071;BME280;36278;47.952;21.714;2023-07-29T05:53:45;99974.94;;;20.64;100.00
43071;BME280;36278;47.952;21.714;2023-07-29T05:56:10;99983.31;;;20.55;100.00
43071;BME280;36278;47.952;21.714;2023-07-29T05:58:35;99985.28;;;20.46;100.00
43071;BME280;36278;47.952;21.714;2023-07-29T06:01:00;99978.31;;;20.52;100.00
43071;BME280;36278;47.952;21.714;2023-07-29T06:03:26;99980.25;;;20.58;100.00
43071;BME280;36278;47.952;21.714;2023-07-29T06:05:51;99983.34;;;20.76;100.00
43071;BME280;36278;47.952;21.714;2023-07-29T06:08:17;99979.34;;;21.08;100.00
43071;BME280;36278;47.952;21.714;2023-07-29T06:10:42;99984.56;;;21.31;100.00
43071;BME280;36278;47.952;21.714;2023-07-29T06:13:07;99973.31;;;21.49;100.00
43071;BME280;36278;47.952;21.714;2023-07-29T06:15:33;99974.81;;;21.58;100.00
43071;BME280;36278;47.952;21.714;2023-07-29T06:17:58;99974.97;;;21.50;100.00
43071;BME280;36278;47.952;21.714;2023-07-29T06:20:23;99976.75;;;21.64;100.00
43071;BME280;36278;47.952;21.714;2023-07-29T06:22:49;99974.41;;;21.89;100.00
43071;BME280;36278;47.952;21.714;2023-07-29T06:25:14;99978.81;;;21.97;100.00
43071;BME280;36278;47.952;21.714;2023-07-29T06:27:39;99974.72;;;22.01;100.00
43071;BME280;36278;47.952;21.714;2023-07-29T06:30:05;99983.22;;;22.04;100.00
43071;BME280;36278;47.952;21.714;2023-07-29T06:32:31;99984.31;;;21.82;100.00
43071;BME280;36278;47.952;21.714;2023-07-29T06:34:56;99985.16;;;21.82;100.00
43071;BME280;36278;47.952;21.714;2023-07-29T06:37:21;99982.38;;;21.69;100.00
43071;BME280;36278;47.952;21.714;2023-07-29T06:39:47;99982.00;;;21.72;100.00
43071;BME280;36278;47.952;21.714;2023-07-29T06:42:12;99976.69;;;21.86;100.00
43071;BME280;36278;47.952;21.714;2023-07-29T06:44:38;99982.16;;;21.99;100.00
43071;BME280;36278;47.952;21.714;2023-07-29T06:47:03;99984.28;;;22.03;100.00
43071;BME280;36278;47.952;21.714;2023-07-29T06:49:28;99995.75;;;22.12;100.00
43071;BME280;36278;47.952;21.714;2023-07-29T06:51:54;99997.03;;;22.16;100.00
43071;BME280;36278;47.952;21.714;2023-07-29T06:54:19;99997.88;;;22.17;100.00
43071;BME280;36278;47.952;21.714;2023-07-29T06:56:49;99990.19;;;22.20;100.00
43071;BME280;36278;47.952;21.714;2023-07-29T06:59:14;100000.22;;;22.26;99.24
43071;BME280;36278;47.952;21.714;2023-07-29T07:01:39;99991.91;;;22.28;98.12
43071;BME280;36278;47.952;21.714;2023-07-29T07:04:04;99991.28;;;22.26;97.90
43071;BME280;36278;47.952;21.714;2023-07-29T07:06:30;99994.81;;;22.26;98.86
43071;BME280;36278;47.952;21.714;2023-07-29T07:08:55;99994.41;;;22.29;99.49
43071;BME280;36278;47.952;21.714;2023-07-29T07:11:20;99990.50;;;22.32;97.84
43071;BME280;36278;47.952;21.714;2023-07-29T07:13:46;99983.41;;;22.31;97.57
43071;BME280;36278;47.952;21.714;2023-07-29T07:16:11;99984.84;;;22.27;98.90
43071;BME280;36278;47.952;21.714;2023-07-29T07:18:36;99994.03;;;22.32;99.73
43071;BME280;36278;47.952;21.714;2023-07-29T07:21:01;99993.19;;;22.38;100.00
43071;BME280;36278;47.952;21.714;2023-07-29T07:23:27;99988.91;;;22.51;100.00
43071;BME280;36278;47.952;21.714;2023-07-29T07:25:52;99992.00;;;22.54;100.00
43071;BME280;36278;47.952;21.714;2023-07-29T07:28:18;100003.25;;;22.58;100.00
43071;BME280;36278;47.952;21.714;2023-07-29T07:30:43;99997.44;;;22.61;100.00
43071;BME280;36278;47.952;21.714;2023-07-29T07:33:09;99999.72;;;22.57;100.00
43071;BME280;36278;47.952;21.714;2023-07-29T07:35:34;99997.41;;;22.54;100.00
43071;BME280;36278;47.952;21.714;2023-07-29T07:38:00;99998.63;;;22.45;100.00
43071;BME280;36278;47.952;21.714;2023-07-29T07:40:27;99993.25;;;22.52;100.00
43071;BME280;36278;47.952;21.714;2023-07-29T07:42:52;99994.13;;;22.59;100.00
43071;BME280;36278;47.952;21.714;2023-07-29T07:45:18;100002.25;;;22.72;99.59
43071;BME280;36278;47.952;21.714;2023-07-29T07:47:43;99998.13;;;22.76;97.60
43071;BME280;36278;47.952;21.714;2023-07-29T07:50:09;99993.03;;;23.01;98.06
43071;BME280;36278;47.952;21.714;2023-07-29T07:52:34;99996.03;;;22.78;94.85
43071;BME280;36278;47.952;21.714;2023-07-29T07:54:59;99985.31;;;22.85;93.42
43071;BME280;36278;47.952;21.714;2023-07-29T07:57:25;99992.44;;;23.06;92.51
43071;BME280;36278;47.952;21.714;2023-07-29T07:59:50;99987.66;;;23.34;92.09
43071;BME280;36278;47.952;21.714;2023-07-29T08:02:17;99982.28;;;23.67;91.59
43071;BME280;36278;47.952;21.714;2023-07-29T08:04:43;99992.66;;;23.97;89.76
43071;BME280;36278;47.952;21.714;2023-07-29T08:07:08;99985.53;;;24.16;87.13
43071;BME280;36278;47.952;21.714;2023-07-29T08:09:33;99984.66;;;24.28;83.02
43071;BME280;36278;47.952;21.714;2023-07-29T08:11:58;99978.88;;;24.12;82.72
43071;BME280;36278;47.952;21.714;2023-07-29T08:14:24;99982.00;;;24.02;86.26
43071;BME280;36278;47.952;21.714;2023-07-29T08:16:49;99976.13;;;24.25;85.33
43071;BME280;36278;47.952;21.714;2023-07-29T08:19:14;99982.34;;;24.45;83.17
43071;BME280;36278;47.952;21.714;2023-07-29T08:21:40;99978.38;;;24.41;82.11
43071;BME280;36278;47.952;21.714;2023-07-29T08:24:05;99966.34;;;24.37;82.55
43071;BME280;36278;47.952;21.714;2023-07-29T08:26:32;99975.03;;;24.52;81.79
43071;BME280;36278;47.952;21.714;2023-07-29T08:28:57;99973.47;;;24.70;81.88
43071;BME280;36278;47.952;21.714;2023-07-29T08:31:23;99975.22;;;24.89;81.93
43071;BME280;36278;47.952;21.714;2023-07-29T08:33:48;99971.44;;;25.03;76.93
43071;BME280;36278;47.952;21.714;2023-07-29T08:36:13;99970.50;;;25.16;76.72
43071;BME280;36278;47.952;21.714;2023-07-29T08:38:39;99974.94;;;25.35;77.26
43071;BME280;36278;47.952;21.714;2023-07-29T08:41:13;99964.66;;;25.44;76.42
43071;BME280;36278;47.952;21.714;2023-07-29T08:43:39;99961.22;;;25.55;77.55
43071;BME280;36278;47.952;21.714;2023-07-29T08:46:07;99958.81;;;25.65;75.75
43071;BME280;36278;47.952;21.714;2023-07-29T08:48:40;99971.69;;;25.77;72.31
43071;BME280;36278;47.952;21.714;2023-07-29T08:51:06;99963.22;;;25.66;72.53
43071;BME280;36278;47.952;21.714;2023-07-29T08:53:32;99961.44;;;25.79;72.54
43071;BME280;36278;47.952;21.714;2023-07-29T08:55:58;99967.09;;;25.95;72.89
43071;BME280;36278;47.952;21.714;2023-07-29T08:58:23;99965.38;;;25.58;72.23
43071;BME280;36278;47.952;21.714;2023-07-29T09:00:49;99960.16;;;25.56;72.91
43071;BME280;36278;47.952;21.714;2023-07-29T09:03:15;99970.28;;;25.67;72.43
43071;BME280;36278;47.952;21.714;2023-07-29T09:05:40;99967.03;;;26.02;72.69
43071;BME280;36278;47.952;21.714;2023-07-29T09:08:05;99968.47;;;26.05;70.48
43071;BME280;36278;47.952;21.714;2023-07-29T09:10:34;99967.19;;;26.25;70.13
43071;BME280;36278;47.952;21.714;2023-07-29T09:13:00;99959.06;;;26.44;69.73
43071;BME280;36278;47.952;21.714;2023-07-29T09:15:31;99956.69;;;26.66;69.44
43071;BME280;36278;47.952;21.714;2023-07-29T09:17:57;99961.72;;;26.80;68.51
43071;BME280;36278;47.952;21.714;2023-07-29T09:20:28;99957.94;;;26.81;69.64
43071;BME280;36278;47.952;21.714;2023-07-29T09:22:54;99971.94;;;26.97;69.16
43071;BME280;36278;47.952;21.714;2023-07-29T09:25:26;99960.81;;;26.98;69.36
43071;BME280;36278;47.952;21.714;2023-07-29T09:27:52;99964.69;;;26.91;70.34
43071;BME280;36278;47.952;21.714;2023-07-29T09:30:17;99962.53;;;26.81;70.63
43071;BME280;36278;47.952;21.714;2023-07-29T09:32:43;99961.50;;;26.94;71.73
43071;BME280;36278;47.952;21.714;2023-07-29T09:35:12;99960.63;;;27.12;69.19
43071;BME280;36278;47.952;21.714;2023-07-29T09:37:38;99959.75;;;27.29;69.59
43071;BME280;36278;47.952;21.714;2023-07-29T09:40:03;99955.84;;;27.49;69.14
43071;BME280;36278;47.952;21.714;2023-07-29T09:42:29;99958.38;;;27.62;67.86
43071;BME280;36278;47.952;21.714;2023-07-29T09:44:54;99950.22;;;27.74;67.40
43071;BME280;36278;47.952;21.714;2023-07-29T09:47:23;99949.88;;;27.70;66.53
43071;BME280;36278;47.952;21.714;2023-07-29T09:49:49;99957.31;;;27.75;66.21
43071;BME280;36278;47.952;21.714;2023-07-29T09:52:17;99955.88;;;27.84;65.11
43071;BME280;36278;47.952;21.714;2023-07-29T09:54:44;99958.00;;;27.93;64.19
43071;BME280;36278;47.952;21.714;2023-07-29T09:57:18;99946.75;;;28.02;63.74
43071;BME280;36278;47.952;21.714;2023-07-29T09:59:56;99944.13;;;28.07;63.64
43071;BME280;36278;47.952;21.714;2023-07-29T10:02:22;99939.75;;;28.06;61.59
43071;BME280;36278;47.952;21.714;2023-07-29T10:04:47;99943.09;;;27.96;62.50
43071;BME280;36278;47.952;21.714;2023-07-29T10:07:13;99934.19;;;28.01;62.95
43071;BME280;36278;47.952;21.714;2023-07-29T10:09:39;99932.00;;;28.26;62.38
43071;BME280;36278;47.952;21.714;2023-07-29T10:12:08;99931.81;;;28.16;62.95
43071;BME280;36278;47.952;21.714;2023-07-29T10:14:34;99932.03;;;28.14;63.51
43071;BME280;36278;47.952;21.714;2023-07-29T10:17:00;99933.44;;;28.17;62.44
43071;BME280;36278;47.952;21.714;2023-07-29T10:19:25;99924.91;;;28.25;61.25
43071;BME280;36278;47.952;21.714;2023-07-29T10:21:51;99936.34;;;27.63;62.45
43071;BME280;36278;47.952;21.714;2023-07-29T10:24:18;99930.22;;;27.68;62.41
43071;BME280;36278;47.952;21.714;2023-07-29T10:26:45;99931.41;;;27.72;62.40
43071;BME280;36278;47.952;21.714;2023-07-29T10:29:12;99926.63;;;27.32;63.48
43071;BME280;36278;47.952;21.714;2023-07-29T10:31:38;99925.38;;;27.70;63.31
43071;BME280;36278;47.952;21.714;2023-07-29T10:34:05;99920.22;;;28.09;61.75
43071;BME280;36278;47.952;21.714;2023-07-29T10:36:30;99917.22;;;28.34;59.41
43071;BME280;36278;47.952;21.714;2023-07-29T10:38:56;99920.09;;;28.56;58.34
43071;BME280;36278;47.952;21.714;2023-07-29T10:41:21;99907.41;;;28.61;58.98
43071;BME280;36278;47.952;21.714;2023-07-29T10:43:47;99908.81;;;28.64;58.52
43071;BME280;36278;47.952;21.714;2023-07-29T10:46:19;99906.47;;;28.56;59.50
43071;BME280;36278;47.952;21.714;2023-07-29T10:54:11;99895.94;;;28.59;58.15
43071;BME280;36278;47.952;21.714;2023-07-29T10:56:36;99901.81;;;28.28;58.60
43071;BME280;36278;47.952;21.714;2023-07-29T10:59:22;99894.72;;;28.27;60.51
43071;BME280;36278;47.952;21.714;2023-07-29T11:01:51;99897.41;;;28.38;57.40
43071;BME280;36278;47.952;21.714;2023-07-29T11:14:57;99885.78;;;28.71;56.80
43071;BME280;36278;47.952;21.714;2023-07-29T11:17:22;99892.69;;;28.62;56.76
43071;BME280;36278;47.952;21.714;2023-07-29T11:19:48;99887.50;;;28.61;57.07
43071;BME280;36278;47.952;21.714;2023-07-29T11:22:15;99886.78;;;28.37;57.65
43071;BME280;36278;47.952;21.714;2023-07-29T11:24:41;99879.72;;;28.53;57.33
43071;BME280;36278;47.952;21.714;2023-07-29T11:27:10;99881.91;;;28.39;58.77
43071;BME280;36278;47.952;21.714;2023-07-29T11:29:36;99884.84;;;28.66;58.79
43071;BME280;36278;47.952;21.714;2023-07-29T11:32:02;99876.75;;;29.16;56.64
43071;BME280;36278;47.952;21.714;2023-07-29T11:34:31;99878.56;;;28.94;56.65
43071;BME280;36278;47.952;21.714;2023-07-29T11:36:57;99872.03;;;28.66;56.51
43071;BME280;36278;47.952;21.714;2023-07-29T11:39:22;99867.38;;;29.29;55.85
43071;BME280;36278;47.952;21.714;2023-07-29T11:41:47;99860.19;;;29.78;54.06
43071;BME280;36278;47.952;21.714;2023-07-29T11:44:21;99865.47;;;29.85;55.71
43071;BME280;36278;47.952;21.714;2023-07-29T11:46:47;99861.41;;;30.58;52.69
43071;BME280;36278;47.952;21.714;2023-07-29T11:49:13;99860.22;;;30.71;51.93
43071;BME280;36278;47.952;21.714;2023-07-29T11:51:39;99855.69;;;30.33;52.21
43071;BME280;36278;47.952;21.714;2023-07-29T11:54:06;99852.72;;;30.12;52.41
43071;BME280;36278;47.952;21.714;2023-07-29T11:56:32;99855.06;;;29.82;53.30
43071;BME280;36278;47.952;21.714;2023-07-29T11:58:57;99855.63;;;29.45;54.35
43071;BME280;36278;47.952;21.714;2023-07-29T12:01:22;99858.13;;;29.13;55.25
43071;BME280;36278;47.952;21.714;2023-07-29T12:03:48;99855.06;;;28.76;56.30
43071;BME280;36278;47.952;21.714;2023-07-29T12:06:14;99855.25;;;28.58;56.73
43071;BME280;36278;47.952;21.714;2023-07-29T12:08:40;99852.75;;;28.39;57.30
43071;BME280;36278;47.952;21.714;2023-07-29T12:11:06;99852.19;;;28.26;58.09
43071;BME280;36278;47.952;21.714;2023-07-29T12:13:32;99847.03;;;28.12;58.50
43071;BME280;36278;47.952;21.714;2023-07-29T12:16:03;99855.91;;;28.08;59.16
43071;BME280;36278;47.952;21.714;2023-07-29T12:18:32;99850.41;;;27.91;59.52
43071;BME280;36278;47.952;21.714;2023-07-29T12:20:57;99852.31;;;27.90;59.21
43071;BME280;36278;47.952;21.714;2023-07-29T12:23:26;99852.81;;;27.87;59.97
43071;BME280;36278;47.952;21.714;2023-07-29T12:25:52;99855.16;;;27.84;60.30
43071;BME280;36278;47.952;21.714;2023-07-29T12:28:17;99849.38;;;27.80;60.21
43071;BME280;36278;47.952;21.714;2023-07-29T12:30:42;99850.22;;;27.81;60.31
43071;BME280;36278;47.952;21.714;2023-07-29T12:33:08;99840.03;;;27.76;60.85
43071;BME280;36278;47.952;21.714;2023-07-29T12:35:35;99826.09;;;27.73;60.86
43071;BME280;36278;47.952;21.714;2023-07-29T12:38:00;99828.81;;;27.73;60.82
43071;BME280;36278;47.952;21.714;2023-07-29T12:40:26;99821.59;;;28.07;59.88
43071;BME280;36278;47.952;21.714;2023-07-29T12:42:51;99821.06;;;28.21;59.01
43071;BME280;36278;47.952;21.714;2023-07-29T12:45:17;99813.63;;;28.17;59.53
43071;BME280;36278;47.952;21.714;2023-07-29T12:47:43;99812.00;;;28.44;58.26
43071;BME280;36278;47.952;21.714;2023-07-29T12:50:08;99803.69;;;28.68;57.98
43071;BME280;36278;47.952;21.714;2023-07-29T12:52:34;99791.13;;;28.84;56.77
43071;BME280;36278;47.952;21.714;2023-07-29T12:54:59;99790.75;;;28.92;55.57
43071;BME280;36278;47.952;21.714;2023-07-29T12:57:24;99798.66;;;28.93;56.55
43071;BME280;36278;47.952;21.714;2023-07-29T12:59:50;99795.13;;;28.93;56.25
43071;BME280;36278;47.952;21.714;2023-07-29T13:02:15;99783.38;;;28.92;53.83
43071;BME280;36278;47.952;21.714;2023-07-29T13:04:40;99795.78;;;29.00;54.07